sensor_id;sensor_type;location;lat;lon;timestamp;P1;durP1;ratioP1;P2;durP2;ratioP2
65358;SDS011;52491;45.900;6.346;2023-04-15T00:01:59;0.80;;;0.55;;
65358;SDS011;52491;45.900;6.346;2023-04-15T00:04:24;1.35;;;0.63;;
65358;SDS011;52491;45.900;6.346;2023-04-15T00:06:50;1.05;;;0.65;;
65358;SDS011;52491;45.900;6.346;2023-04-15T00:09:17;1.15;;;0.60;;
65358;SDS011;52491;45.900;6.346;2023-04-15T00:11:44;1.48;;;0.55;;
65358;SDS011;52491;45.900;6.346;2023-04-15T00:14:11;1.48;;;0.60;;
65358;SDS011;52491;45.900;6.346;2023-04-15T00:16:37;1.15;;;0.50;;
65358;SDS011;52491;45.900;6.346;2023-04-15T00:19:03;1.42;;;0.73;;
65358;SDS011;52491;45.900;6.346;2023-04-15T00:21:29;1.38;;;0.70;;
65358;SDS011;52491;45.900;6.346;2023-04-15T00:23:55;0.73;;;0.73;;
65358;SDS011;52491;45.900;6.346;2023-04-15T00:26:20;1.65;;;0.85;;
65358;SDS011;52491;45.900;6.346;2023-04-15T00:28:46;1.75;;;0.65;;
65358;SDS011;52491;45.900;6.346;2023-04-15T00:31:12;1.27;;;0.60;;
65358;SDS011;52491;45.900;6.346;2023-04-15T00:33:38;2.00;;;0.82;;
65358;SDS011;52491;45.900;6.346;2023-04-15T00:36:05;1.25;;;0.32;;
65358;SDS011;52491;45.900;6.346;2023-04-15T00:38:31;0.60;;;0.40;;
65358;SDS011;52491;45.900;6.346;2023-04-15T00:40:56;2.85;;;0.60;;
65358;SDS011;52491;45.900;6.346;2023-04-15T00:43:23;0.50;;;0.50;;
65358;SDS011;52491;45.900;6.346;2023-04-15T00:45:51;0.95;;;0.85;;
65358;SDS011;52491;45.900;6.346;2023-04-15T00:48:19;1.00;;;0.90;;
65358;SDS011;52491;45.900;6.346;2023-04-15T00:50:45;0.73;;;0.68;;
65358;SDS011;52491;45.900;6.346;2023-04-15T00:53:10;1.48;;;0.55;;
65358;SDS011;52491;45.900;6.346;2023-04-15T00:55:36;1.20;;;0.80;;
65358;SDS011;52491;45.900;6.346;2023-04-15T00:58:02;1.02;;;0.50;;
65358;SDS011;52491;45.900;6.346;2023-04-15T01:00:27;0.68;;;0.50;;
65358;SDS011;52491;45.900;6.346;2023-04-15T01:02:54;0.90;;;0.60;;
65358;SDS011;52491;45.900;6.346;2023-04-15T01:05:20;2.83;;;0.75;;
65358;SDS011;52491;45.900;6.346;2023-04-15T01:07:46;0.82;;;0.40;;
65358;SDS011;52491;45.900;6.346;2023-04-15T01:10:12;1.88;;;0.85;;
65358;SDS011;52491;45.900;6.346;2023-04-15T01:12:38;2.25;;;0.32;;
65358;SDS011;52491;45.900;6.346;2023-04-15T01:15:04;1.60;;;0.40;;
65358;SDS011;52491;45.900;6.346;2023-04-15T01:17:30;0.70;;;0.30;;
65358;SDS011;52491;45.900;6.346;2023-04-15T01:19:56;0.80;;;0.60;;
65358;SDS011;52491;45.900;6.346;2023-04-15T01:22:23;1.23;;;0.40;;
65358;SDS011;52491;45.900;6.346;2023-04-15T01:24:54;0.50;;;0.50;;
65358;SDS011;52491;45.900;6.346;2023-04-15T01:27:26;0.40;;;0.40;;
65358;SDS011;52491;45.900;6.346;2023-04-15T01:29:51;1.20;;;0.60;;
65358;SDS011;52491;45.900;6.346;2023-04-15T01:32:17;1.33;;;0.35;;
65358;SDS011;52491;45.900;6.346;2023-04-15T01:34:44;0.63;;;0.38;;
65358;SDS011;52491;45.900;6.346;2023-04-15T01:37:09;1.02;;;0.50;;
65358;SDS011;52491;45.900;6.346;2023-04-15T01:39:35;1.27;;;0.32;;
65358;SDS011;52491;45.900;6.346;2023-04-15T01:42:01;0.70;;;0.70;;
65358;SDS011;52491;45.900;6.346;2023-04-15T01:44:27;0.60;;;0.50;;
65358;SDS011;52491;45.900;6.346;2023-04-15T01:46:52;0.82;;;0.57;;
65358;SDS011;52491;45.900;6.346;2023-04-15T01:49:18;0.75;;;0.50;;
65358;SDS011;52491;45.900;6.346;2023-04-15T01:51:44;0.73;;;0.45;;
65358;SDS011;52491;45.900;6.346;2023-04-15T01:54:09;0.63;;;0.50;;
65358;SDS011;52491;45.900;6.346;2023-04-15T01:56:35;1.00;;;0.63;;
65358;SDS011;52491;45.900;6.346;2023-04-15T01:59:01;0.60;;;0.40;;
65358;SDS011;52491;45.900;6.346;2023-04-15T02:01:27;0.55;;;0.40;;
65358;SDS011;52491;45.900;6.346;2023-04-15T02:03:53;0.50;;;0.43;;
65358;SDS011;52491;45.900;6.346;2023-04-15T02:06:18;0.63;;;0.45;;
65358;SDS011;52491;45.900;6.346;2023-04-15T02:08:45;0.47;;;0.47;;
65358;SDS011;52491;45.900;6.346;2023-04-15T02:11:10;0.50;;;0.40;;
65358;SDS011;52491;45.900;6.346;2023-04-15T02:13:36;0.40;;;0.40;;
65358;SDS011;52491;45.900;6.346;2023-04-15T02:16:02;0.65;;;0.50;;
65358;SDS011;52491;45.900;6.346;2023-04-15T02:18:30;1.23;;;0.30;;
65358;SDS011;52491;45.900;6.346;2023-04-15T02:20:55;0.70;;;0.35;;
65358;SDS011;52491;45.900;6.346;2023-04-15T02:23:22;1.58;;;0.50;;
65358;SDS011;52491;45.900;6.346;2023-04-15T02:25:48;1.00;;;0.65;;
65358;SDS011;52491;45.900;6.346;2023-04-15T02:28:14;0.20;;;0.20;;
65358;SDS011;52491;45.900;6.346;2023-04-15T02:30:39;0.50;;;0.40;;
65358;SDS011;52491;45.900;6.346;2023-04-15T02:33:05;0.30;;;0.30;;
65358;SDS011;52491;45.900;6.346;2023-04-15T02:35:31;0.50;;;0.40;;
65358;SDS011;52491;45.900;6.346;2023-04-15T02:37:57;0.60;;;0.50;;
65358;SDS011;52491;45.900;6.346;2023-04-15T02:40:23;0.80;;;0.43;;
65358;SDS011;52491;45.900;6.346;2023-04-15T02:42:48;1.02;;;0.68;;
65358;SDS011;52491;45.900;6.346;2023-04-15T02:45:15;2.83;;;0.55;;
65358;SDS011;52491;45.900;6.346;2023-04-15T02:47:42;0.55;;;0.38;;
65358;SDS011;52491;45.900;6.346;2023-04-15T02:50:09;3.58;;;0.43;;
65358;SDS011;52491;45.900;6.346;2023-04-15T02:52:39;1.70;;;0.30;;
65358;SDS011;52491;45.900;6.346;2023-04-15T02:55:06;0.43;;;0.40;;
65358;SDS011;52491;45.900;6.346;2023-04-15T02:57:33;0.38;;;0.30;;
65358;SDS011;52491;45.900;6.346;2023-04-15T03:00:02;5.00;;;0.68;;
65358;SDS011;52491;45.900;6.346;2023-04-15T03:02:37;0.95;;;0.52;;
65358;SDS011;52491;45.900;6.346;2023-04-15T03:05:04;0.80;;;0.47;;
65358;SDS011;52491;45.900;6.346;2023-04-15T03:07:33;1.85;;;0.40;;
65358;SDS011;52491;45.900;6.346;2023-04-15T03:09:58;1.55;;;0.50;;
65358;SDS011;52491;45.900;6.346;2023-04-15T03:12:24;5.43;;;0.50;;
65358;SDS011;52491;45.900;6.346;2023-04-15T03:14:50;1.40;;;0.57;;
65358;SDS011;52491;45.900;6.346;2023-04-15T03:17:15;3.13;;;0.73;;
65358;SDS011;52491;45.900;6.346;2023-04-15T03:19:41;0.85;;;0.43;;
65358;SDS011;52491;45.900;6.346;2023-04-15T03:22:06;1.52;;;0.45;;
65358;SDS011;52491;45.900;6.346;2023-04-15T03:24:32;1.75;;;0.50;;
65358;SDS011;52491;45.900;6.346;2023-04-15T03:26:57;1.27;;;0.82;;
65358;SDS011;52491;45.900;6.346;2023-04-15T03:29:23;0.80;;;0.40;;
65358;SDS011;52491;45.900;6.346;2023-04-15T03:31:49;3.33;;;0.40;;
65358;SDS011;52491;45.900;6.346;2023-04-15T03:34:14;1.80;;;0.65;;
65358;SDS011;52491;45.900;6.346;2023-04-15T03:36:40;0.88;;;0.60;;
65358;SDS011;52491;45.900;6.346;2023-04-15T03:39:06;2.13;;;0.55;;
65358;SDS011;52491;45.900;6.346;2023-04-15T03:41:32;1.17;;;0.40;;
65358;SDS011;52491;45.900;6.346;2023-04-15T03:43:57;4.00;;;0.40;;
65358;SDS011;52491;45.900;6.346;2023-04-15T03:46:23;4.82;;;0.52;;
65358;SDS011;52491;45.900;6.346;2023-04-15T03:48:48;1.95;;;0.40;;
65358;SDS011;52491;45.900;6.346;2023-04-15T03:51:14;1.00;;;0.50;;
65358;SDS011;52491;45.900;6.346;2023-04-15T03:53:40;3.70;;;0.50;;
65358;SDS011;52491;45.900;6.346;2023-04-15T03:56:05;0.50;;;0.30;;
65358;SDS011;52491;45.900;6.346;2023-04-15T03:58:31;1.38;;;0.30;;
65358;SDS011;52491;45.900;6.346;2023-04-15T04:00:57;1.40;;;0.35;;
65358;SDS011;52491;45.900;6.346;2023-04-15T04:03:22;0.50;;;0.50;;
65358;SDS011;52491;45.900;6.346;2023-04-15T04:05:48;0.73;;;0.40;;
65358;SDS011;52491;45.900;6.346;2023-04-15T04:08:13;0.80;;;0.40;;
65358;SDS011;52491;45.900;6.346;2023-04-15T04:10:40;0.30;;;0.30;;
65358;SDS011;52491;45.900;6.346;2023-04-15T04:13:06;1.08;;;0.52;;
65358;SDS011;52491;45.900;6.346;2023-04-15T04:15:32;0.65;;;0.30;;
65358;SDS011;52491;45.900;6.346;2023-04-15T04:17:58;0.50;;;0.47;;
65358;SDS011;52491;45.900;6.346;2023-04-15T04:20:23;1.70;;;0.40;;
65358;SDS011;52491;45.900;6.346;2023-04-15T04:22:49;0.65;;;0.20;;
65358;SDS011;52491;45.900;6.346;2023-04-15T04:25:14;0.43;;;0.43;;
65358;SDS011;52491;45.900;6.346;2023-04-15T04:27:40;0.55;;;0.40;;
65358;SDS011;52491;45.900;6.346;2023-04-15T04:30:06;1.38;;;0.40;;
65358;SDS011;52491;45.900;6.346;2023-04-15T04:32:32;0.32;;;0.30;;
65358;SDS011;52491;45.900;6.346;2023-04-15T04:34:58;0.30;;;0.30;;
65358;SDS011;52491;45.900;6.346;2023-04-15T04:37:23;2.50;;;0.32;;
65358;SDS011;52491;45.900;6.346;2023-04-15T04:39:49;0.22;;;0.22;;
65358;SDS011;52491;45.900;6.346;2023-04-15T04:42:15;0.65;;;0.38;;
65358;SDS011;52491;45.900;6.346;2023-04-15T04:44:40;0.68;;;0.30;;
65358;SDS011;52491;45.900;6.346;2023-04-15T04:47:06;0.50;;;0.45;;
65358;SDS011;52491;45.900;6.346;2023-04-15T04:49:32;0.80;;;0.30;;
65358;SDS011;52491;45.900;6.346;2023-04-15T04:51:58;1.13;;;0.30;;
65358;SDS011;52491;45.900;6.346;2023-04-15T04:54:24;0.38;;;0.28;;
65358;SDS011;52491;45.900;6.346;2023-04-15T04:56:50;0.25;;;0.25;;
65358;SDS011;52491;45.900;6.346;2023-04-15T04:59:15;0.40;;;0.30;;
65358;SDS011;52491;45.900;6.346;2023-04-15T05:01:41;0.40;;;0.30;;
65358;SDS011;52491;45.900;6.346;2023-04-15T05:04:07;1.05;;;0.63;;
65358;SDS011;52491;45.900;6.346;2023-04-15T05:06:32;0.43;;;0.43;;
65358;SDS011;52491;45.900;6.346;2023-04-15T05:08:59;1.05;;;0.38;;
65358;SDS011;52491;45.900;6.346;2023-04-15T05:11:25;1.33;;;0.82;;
65358;SDS011;52491;45.900;6.346;2023-04-15T05:13:52;1.00;;;0.40;;
65358;SDS011;52491;45.900;6.346;2023-04-15T05:16:17;0.52;;;0.40;;
65358;SDS011;52491;45.900;6.346;2023-04-15T05:18:44;1.15;;;0.40;;
65358;SDS011;52491;45.900;6.346;2023-04-15T05:21:09;1.02;;;0.40;;
65358;SDS011;52491;45.900;6.346;2023-04-15T05:23:35;1.20;;;0.55;;
65358;SDS011;52491;45.900;6.346;2023-04-15T05:26:01;0.35;;;0.35;;
65358;SDS011;52491;45.900;6.346;2023-04-15T05:28:27;1.92;;;0.50;;
65358;SDS011;52491;45.900;6.346;2023-04-15T05:30:53;0.40;;;0.40;;
65358;SDS011;52491;45.900;6.346;2023-04-15T05:33:18;0.80;;;0.65;;
65358;SDS011;52491;45.900;6.346;2023-04-15T05:35:44;0.50;;;0.50;;
65358;SDS011;52491;45.900;6.346;2023-04-15T05:38:10;0.35;;;0.35;;
65358;SDS011;52491;45.900;6.346;2023-04-15T05:40:35;0.40;;;0.40;;
65358;SDS011;52491;45.900;6.346;2023-04-15T05:43:01;3.55;;;0.35;;
65358;SDS011;52491;45.900;6.346;2023-04-15T05:45:27;0.20;;;0.20;;
65358;SDS011;52491;45.900;6.346;2023-04-15T05:47:52;2.45;;;0.50;;
65358;SDS011;52491;45.900;6.346;2023-04-15T05:50:18;0.60;;;0.60;;
65358;SDS011;52491;45.900;6.346;2023-04-15T05:52:45;2.42;;;0.40;;
65358;SDS011;52491;45.900;6.346;2023-04-15T05:55:11;0.40;;;0.40;;
65358;SDS011;52491;45.900;6.346;2023-04-15T05:57:36;0.57;;;0.32;;
65358;SDS011;52491;45.900;6.346;2023-04-15T06:00:03;1.38;;;0.60;;
65358;SDS011;52491;45.900;6.346;2023-04-15T06:02:29;0.80;;;0.40;;
65358;SDS011;52491;45.900;6.346;2023-04-15T06:04:55;0.52;;;0.40;;
65358;SDS011;52491;45.900;6.346;2023-04-15T06:07:22;0.95;;;0.40;;
65358;SDS011;52491;45.900;6.346;2023-04-15T06:09:48;2.00;;;0.47;;
65358;SDS011;52491;45.900;6.346;2023-04-15T06:12:14;0.82;;;0.38;;
65358;SDS011;52491;45.900;6.346;2023-04-15T06:14:39;1.27;;;0.50;;
65358;SDS011;52491;45.900;6.346;2023-04-15T06:17:05;0.98;;;0.63;;
65358;SDS011;52491;45.900;6.346;2023-04-15T06:19:31;3.47;;;0.52;;
65358;SDS011;52491;45.900;6.346;2023-04-15T06:21:57;1.42;;;0.30;;
65358;SDS011;52491;45.900;6.346;2023-04-15T06:24:23;4.70;;;0.60;;
65358;SDS011;52491;45.900;6.346;2023-04-15T06:26:49;5.93;;;0.80;;
65358;SDS011;52491;45.900;6.346;2023-04-15T06:29:14;2.17;;;0.40;;
65358;SDS011;52491;45.900;6.346;2023-04-15T06:31:40;2.00;;;0.65;;
65358;SDS011;52491;45.900;6.346;2023-04-15T06:34:05;0.52;;;0.40;;
65358;SDS011;52491;45.900;6.346;2023-04-15T06:36:32;2.42;;;0.50;;
65358;SDS011;52491;45.900;6.346;2023-04-15T06:38:57;2.72;;;0.60;;
65358;SDS011;52491;45.900;6.346;2023-04-15T06:41:23;3.42;;;0.50;;
65358;SDS011;52491;45.900;6.346;2023-04-15T06:43:49;0.80;;;0.52;;
65358;SDS011;52491;45.900;6.346;2023-04-15T06:46:15;1.33;;;0.45;;
65358;SDS011;52491;45.900;6.346;2023-04-15T06:48:41;1.67;;;0.40;;
65358;SDS011;52491;45.900;6.346;2023-04-15T06:51:06;5.07;;;0.47;;
65358;SDS011;52491;45.900;6.346;2023-04-15T06:53:32;2.92;;;0.70;;
65358;SDS011;52491;45.900;6.346;2023-04-15T06:55:57;8.13;;;1.00;;
65358;SDS011;52491;45.900;6.346;2023-04-15T06:58:23;7.63;;;1.77;;
65358;SDS011;52491;45.900;6.346;2023-04-15T07:00:49;5.63;;;1.42;;
65358;SDS011;52491;45.900;6.346;2023-04-15T07:03:15;10.13;;;2.03;;
65358;SDS011;52491;45.900;6.346;2023-04-15T07:05:40;3.80;;;1.17;;
65358;SDS011;52491;45.900;6.346;2023-04-15T07:08:06;10.02;;;1.58;;
65358;SDS011;52491;45.900;6.346;2023-04-15T07:10:34;3.40;;;1.23;;
65358;SDS011;52491;45.900;6.346;2023-04-15T07:13:02;6.25;;;1.40;;
65358;SDS011;52491;45.900;6.346;2023-04-15T07:15:28;3.13;;;1.15;;
65358;SDS011;52491;45.900;6.346;2023-04-15T07:17:54;5.85;;;0.98;;
65358;SDS011;52491;45.900;6.346;2023-04-15T07:20:20;5.35;;;0.95;;
65358;SDS011;52491;45.900;6.346;2023-04-15T07:22:45;5.85;;;1.00;;
65358;SDS011;52491;45.900;6.346;2023-04-15T07:25:11;2.47;;;1.55;;
65358;SDS011;52491;45.900;6.346;2023-04-15T07:27:36;4.30;;;0.88;;
65358;SDS011;52491;45.900;6.346;2023-04-15T07:30:02;8.02;;;1.38;;
65358;SDS011;52491;45.900;6.346;2023-04-15T07:32:28;5.57;;;1.48;;
65358;SDS011;52491;45.900;6.346;2023-04-15T07:34:53;30.00;;;1.95;;
65358;SDS011;52491;45.900;6.346;2023-04-15T07:37:19;95.95;;;6.72;;
65358;SDS011;52491;45.900;6.346;2023-04-15T07:39:45;62.45;;;6.03;;
65358;SDS011;52491;45.900;6.346;2023-04-15T07:42:10;55.17;;;5.35;;
65358;SDS011;52491;45.900;6.346;2023-04-15T07:44:36;35.40;;;4.07;;
65358;SDS011;52491;45.900;6.346;2023-04-15T07:47:02;30.27;;;3.20;;
65358;SDS011;52491;45.900;6.346;2023-04-15T07:49:28;30.98;;;3.15;;
65358;SDS011;52491;45.900;6.346;2023-04-15T07:51:54;39.25;;;4.43;;
65358;SDS011;52491;45.900;6.346;2023-04-15T07:54:21;31.27;;;3.50;;
65358;SDS011;52491;45.900;6.346;2023-04-15T07:56:47;22.50;;;2.42;;
65358;SDS011;52491;45.900;6.346;2023-04-15T07:59:13;23.65;;;2.40;;
65358;SDS011;52491;45.900;6.346;2023-04-15T08:01:41;26.40;;;3.33;;
65358;SDS011;52491;45.900;6.346;2023-04-15T08:04:08;18.77;;;2.30;;
65358;SDS011;52491;45.900;6.346;2023-04-15T08:06:34;7.28;;;2.05;;
65358;SDS011;52491;45.900;6.346;2023-04-15T08:09:00;13.70;;;1.60;;
65358;SDS011;52491;45.900;6.346;2023-04-15T08:11:26;12.23;;;2.55;;
65358;SDS011;52491;45.900;6.346;2023-04-15T08:13:52;13.90;;;2.40;;
65358;SDS011;52491;45.900;6.346;2023-04-15T08:16:21;20.63;;;2.63;;
65358;SDS011;52491;45.900;6.346;2023-04-15T08:18:49;20.60;;;4.10;;
65358;SDS011;52491;45.900;6.346;2023-04-15T08:21:16;12.55;;;2.33;;
65358;SDS011;52491;45.900;6.346;2023-04-15T08:23:43;15.68;;;1.98;;
65358;SDS011;52491;45.900;6.346;2023-04-15T08:26:10;12.20;;;1.73;;
65358;SDS011;52491;45.900;6.346;2023-04-15T08:28:37;13.15;;;1.90;;
65358;SDS011;52491;45.900;6.346;2023-04-15T08:31:04;6.07;;;1.70;;
65358;SDS011;52491;45.900;6.346;2023-04-15T08:33:30;7.35;;;1.98;;
65358;SDS011;52491;45.900;6.346;2023-04-15T08:35:56;8.95;;;2.58;;
65358;SDS011;52491;45.900;6.346;2023-04-15T08:38:22;5.93;;;1.70;;
65358;SDS011;52491;45.900;6.346;2023-04-15T08:40:48;5.57;;;1.80;;
65358;SDS011;52491;45.900;6.346;2023-04-15T08:43:14;5.57;;;1.98;;
65358;SDS011;52491;45.900;6.346;2023-04-15T08:45:46;8.32;;;2.60;;
65358;SDS011;52491;45.900;6.346;2023-04-15T08:48:14;7.97;;;2.17;;
65358;SDS011;52491;45.900;6.346;2023-04-15T08:50:43;6.18;;;1.83;;
65358;SDS011;52491;45.900;6.346;2023-04-15T08:53:10;7.88;;;2.13;;
65358;SDS011;52491;45.900;6.346;2023-04-15T08:55:41;4.53;;;1.08;;
65358;SDS011;52491;45.900;6.346;2023-04-15T08:58:09;3.92;;;1.10;;
65358;SDS011;52491;45.900;6.346;2023-04-15T09:00:36;2.38;;;1.20;;
65358;SDS011;52491;45.900;6.346;2023-04-15T09:03:05;2.60;;;1.15;;
65358;SDS011;52491;45.900;6.346;2023-04-15T09:05:32;5.30;;;1.73;;
65358;SDS011;52491;45.900;6.346;2023-04-15T09:08:01;2.47;;;1.73;;
65358;SDS011;52491;45.900;6.346;2023-04-15T09:10:27;2.05;;;1.85;;
65358;SDS011;52491;45.900;6.346;2023-04-15T09:12:54;2.03;;;1.92;;
65358;SDS011;52491;45.900;6.346;2023-04-15T09:15:20;1.98;;;1.60;;
65358;SDS011;52491;45.900;6.346;2023-04-15T09:17:46;1.65;;;1.50;;
65358;SDS011;52491;45.900;6.346;2023-04-15T09:20:13;2.25;;;1.88;;
65358;SDS011;52491;45.900;6.346;2023-04-15T09:22:40;5.90;;;1.73;;
65358;SDS011;52491;45.900;6.346;2023-04-15T09:27:49;3.33;;;1.75;;
65358;SDS011;52491;45.900;6.346;2023-04-15T09:30:19;4.18;;;1.55;;
65358;SDS011;52491;45.900;6.346;2023-04-15T09:32:49;1.45;;;1.13;;
65358;SDS011;52491;45.900;6.346;2023-04-15T09:35:19;5.38;;;1.70;;
65358;SDS011;52491;45.900;6.346;2023-04-15T09:37:46;2.25;;;1.45;;
65358;SDS011;52491;45.900;6.346;2023-04-15T09:40:13;3.60;;;1.45;;
65358;SDS011;52491;45.900;6.346;2023-04-15T09:43:12;1.70;;;1.50;;
65358;SDS011;52491;45.900;6.346;2023-04-15T09:45:32;1.95;;;1.27;;
65358;SDS011;52491;45.900;6.346;2023-04-15T09:47:59;2.97;;;1.77;;
65358;SDS011;52491;45.900;6.346;2023-04-15T09:50:41;7.70;;;2.05;;
65358;SDS011;52491;45.900;6.346;2023-04-15T09:53:10;6.63;;;1.67;;
65358;SDS011;52491;45.900;6.346;2023-04-15T09:55:36;2.08;;;1.48;;
65358;SDS011;52491;45.900;6.346;2023-04-15T09:58:07;2.08;;;1.38;;
65358;SDS011;52491;45.900;6.346;2023-04-15T10:00:34;6.60;;;1.80;;
65358;SDS011;52491;45.900;6.346;2023-04-15T10:03:02;4.90;;;1.50;;
65358;SDS011;52491;45.900;6.346;2023-04-15T10:05:30;1.58;;;1.40;;
65358;SDS011;52491;45.900;6.346;2023-04-15T10:07:57;2.55;;;1.65;;
65358;SDS011;52491;45.900;6.346;2023-04-15T10:10:23;4.97;;;1.85;;
65358;SDS011;52491;45.900;6.346;2023-04-15T10:12:49;1.73;;;1.63;;
65358;SDS011;52491;45.900;6.346;2023-04-15T10:15:16;6.07;;;2.78;;
65358;SDS011;52491;45.900;6.346;2023-04-15T10:17:43;3.58;;;1.38;;
65358;SDS011;52491;45.900;6.346;2023-04-15T10:20:09;3.35;;;1.52;;
65358;SDS011;52491;45.900;6.346;2023-04-15T10:22:37;2.50;;;1.90;;
65358;SDS011;52491;45.900;6.346;2023-04-15T10:25:05;4.50;;;1.35;;
65358;SDS011;52491;45.900;6.346;2023-04-15T10:27:31;8.95;;;1.90;;
65358;SDS011;52491;45.900;6.346;2023-04-15T10:29:59;7.43;;;2.08;;
65358;SDS011;52491;45.900;6.346;2023-04-15T10:32:25;4.70;;;2.13;;
65358;SDS011;52491;45.900;6.346;2023-04-15T10:34:51;5.40;;;2.55;;
65358;SDS011;52491;45.900;6.346;2023-04-15T10:37:21;4.55;;;2.13;;
65358;SDS011;52491;45.900;6.346;2023-04-15T10:39:57;9.43;;;3.47;;
65358;SDS011;52491;45.900;6.346;2023-04-15T10:42:23;5.88;;;2.03;;
65358;SDS011;52491;45.900;6.346;2023-04-15T10:44:49;4.88;;;2.53;;
65358;SDS011;52491;45.900;6.346;2023-04-15T10:47:19;6.47;;;2.40;;
65358;SDS011;52491;45.900;6.346;2023-04-15T10:49:47;7.00;;;2.63;;
65358;SDS011;52491;45.900;6.346;2023-04-15T10:52:15;9.68;;;2.92;;
65358;SDS011;52491;45.900;6.346;2023-04-15T10:54:42;11.88;;;2.85;;
65358;SDS011;52491;45.900;6.346;2023-04-15T10:57:12;10.85;;;4.22;;
65358;SDS011;52491;45.900;6.346;2023-04-15T11:02:39;9.00;;;5.63;;
65358;SDS011;52491;45.900;6.346;2023-04-15T11:05:05;9.52;;;4.10;;
65358;SDS011;52491;45.900;6.346;2023-04-15T11:07:38;8.05;;;4.40;;
65358;SDS011;52491;45.900;6.346;2023-04-15T11:12:52;23.80;;;10.05;;
65358;SDS011;52491;45.900;6.346;2023-04-15T11:15:26;12.98;;;9.75;;
65358;SDS011;52491;45.900;6.346;2023-04-15T11:17:57;13.10;;;9.77;;
65358;SDS011;52491;45.900;6.346;2023-04-15T11:20:47;13.10;;;8.80;;
65358;SDS011;52491;45.900;6.346;2023-04-15T11:23:14;13.50;;;9.05;;
65358;SDS011;52491;45.900;6.346;2023-04-15T11:25:42;13.88;;;8.93;;
65358;SDS011;52491;45.900;6.346;2023-04-15T11:28:07;18.50;;;13.55;;
65358;SDS011;52491;45.900;6.346;2023-04-15T11:30:34;16.27;;;10.73;;
65358;SDS011;52491;45.900;6.346;2023-04-15T11:33:08;20.85;;;13.50;;
65358;SDS011;52491;45.900;6.346;2023-04-15T11:35:36;13.02;;;10.43;;
65358;SDS011;52491;45.900;6.346;2023-04-15T11:38:07;14.82;;;11.43;;
65358;SDS011;52491;45.900;6.346;2023-04-15T11:40:34;13.90;;;7.88;;
65358;SDS011;52491;45.900;6.346;2023-04-15T11:45:31;11.18;;;8.52;;
65358;SDS011;52491;45.900;6.346;2023-04-15T11:48:06;13.85;;;7.40;;
65358;SDS011;52491;45.900;6.346;2023-04-15T11:50:36;12.20;;;7.65;;
65358;SDS011;52491;45.900;6.346;2023-04-15T11:53:04;16.45;;;8.38;;
65358;SDS011;52491;45.900;6.346;2023-04-15T11:55:40;10.13;;;6.50;;
65358;SDS011;52491;45.900;6.346;2023-04-15T11:58:17;11.93;;;6.43;;
65358;SDS011;52491;45.900;6.346;2023-04-15T12:00:54;12.27;;;6.45;;
65358;SDS011;52491;45.900;6.346;2023-04-15T12:06:13;9.60;;;5.35;;
65358;SDS011;52491;45.900;6.346;2023-04-15T12:13:53;7.25;;;4.75;;
65358;SDS011;52491;45.900;6.346;2023-04-15T12:16:21;7.93;;;4.82;;
65358;SDS011;52491;45.900;6.346;2023-04-15T12:18:57;7.15;;;4.85;;
65358;SDS011;52491;45.900;6.346;2023-04-15T12:21:27;9.52;;;5.28;;
65358;SDS011;52491;45.900;6.346;2023-04-15T12:24:01;5.32;;;4.25;;
65358;SDS011;52491;45.900;6.346;2023-04-15T12:26:43;6.95;;;4.82;;
65358;SDS011;52491;45.900;6.346;2023-04-15T12:29:15;6.28;;;4.35;;
65358;SDS011;52491;45.900;6.346;2023-04-15T12:31:49;6.13;;;4.05;;
65358;SDS011;52491;45.900;6.346;2023-04-15T12:34:30;11.52;;;4.75;;
65358;SDS011;52491;45.900;6.346;2023-04-15T12:36:59;7.03;;;3.97;;
65358;SDS011;52491;45.900;6.346;2023-04-15T12:39:26;6.88;;;3.40;;
65358;SDS011;52491;45.900;6.346;2023-04-15T12:41:53;8.68;;;3.40;;
65358;SDS011;52491;45.900;6.346;2023-04-15T12:44:21;8.35;;;3.28;;
65358;SDS011;52491;45.900;6.346;2023-04-15T12:46:48;5.57;;;3.40;;
65358;SDS011;52491;45.900;6.346;2023-04-15T12:49:15;4.88;;;3.50;;
65358;SDS011;52491;45.900;6.346;2023-04-15T12:51:43;8.05;;;2.97;;
65358;SDS011;52491;45.900;6.346;2023-04-15T12:54:09;4.55;;;2.85;;
65358;SDS011;52491;45.900;6.346;2023-04-15T12:56:35;3.45;;;2.83;;
65358;SDS011;52491;45.900;6.346;2023-04-15T12:59:00;5.97;;;2.45;;
65358;SDS011;52491;45.900;6.346;2023-04-15T13:01:26;10.38;;;2.45;;
65358;SDS011;52491;45.900;6.346;2023-04-15T13:03:52;19.50;;;3.88;;
65358;SDS011;52491;45.900;6.346;2023-04-15T13:06:17;5.32;;;2.55;;
65358;SDS011;52491;45.900;6.346;2023-04-15T13:08:43;6.93;;;3.25;;
65358;SDS011;52491;45.900;6.346;2023-04-15T13:11:09;2.67;;;2.00;;
65358;SDS011;52491;45.900;6.346;2023-04-15T13:13:35;2.97;;;2.67;;
65358;SDS011;52491;45.900;6.346;2023-04-15T13:16:00;3.25;;;2.25;;
65358;SDS011;52491;45.900;6.346;2023-04-15T13:18:26;3.08;;;2.45;;
65358;SDS011;52491;45.900;6.346;2023-04-15T13:20:52;2.58;;;1.80;;
65358;SDS011;52491;45.900;6.346;2023-04-15T13:23:18;2.47;;;1.90;;
65358;SDS011;52491;45.900;6.346;2023-04-15T13:25:44;3.20;;;2.42;;
65358;SDS011;52491;45.900;6.346;2023-04-15T13:28:10;3.35;;;2.08;;
65358;SDS011;52491;45.900;6.346;2023-04-15T13:30:36;4.55;;;2.30;;
65358;SDS011;52491;45.900;6.346;2023-04-15T13:33:02;2.83;;;1.70;;
65358;SDS011;52491;45.900;6.346;2023-04-15T13:35:28;1.60;;;1.40;;
65358;SDS011;52491;45.900;6.346;2023-04-15T13:37:53;3.90;;;2.10;;
65358;SDS011;52491;45.900;6.346;2023-04-15T13:40:20;2.85;;;1.80;;
65358;SDS011;52491;45.900;6.346;2023-04-15T13:42:46;1.98;;;1.60;;
65358;SDS011;52491;45.900;6.346;2023-04-15T13:45:11;3.35;;;1.58;;
65358;SDS011;52491;45.900;6.346;2023-04-15T13:47:37;2.42;;;1.50;;
65358;SDS011;52491;45.900;6.346;2023-04-15T13:50:03;2.45;;;1.77;;
65358;SDS011;52491;45.900;6.346;2023-04-15T13:52:29;2.85;;;2.20;;
65358;SDS011;52491;45.900;6.346;2023-04-15T13:54:55;3.58;;;1.77;;
65358;SDS011;52491;45.900;6.346;2023-04-15T13:57:20;2.92;;;1.83;;
65358;SDS011;52491;45.900;6.346;2023-04-15T13:59:46;1.45;;;1.35;;
65358;SDS011;52491;45.900;6.346;2023-04-15T14:02:11;1.63;;;1.38;;
65358;SDS011;52491;45.900;6.346;2023-04-15T14:04:37;1.55;;;1.30;;
65358;SDS011;52491;45.900;6.346;2023-04-15T14:07:03;2.92;;;1.50;;
65358;SDS011;52491;45.900;6.346;2023-04-15T14:09:28;6.32;;;1.48;;
65358;SDS011;52491;45.900;6.346;2023-04-15T14:11:54;2.10;;;1.65;;
65358;SDS011;52491;45.900;6.346;2023-04-15T14:14:20;1.10;;;0.98;;
65358;SDS011;52491;45.900;6.346;2023-04-15T14:16:46;3.05;;;1.50;;
65358;SDS011;52491;45.900;6.346;2023-04-15T14:19:12;1.40;;;1.30;;
65358;SDS011;52491;45.900;6.346;2023-04-15T14:21:38;1.77;;;1.05;;
65358;SDS011;52491;45.900;6.346;2023-04-15T14:24:04;1.23;;;1.10;;
65358;SDS011;52491;45.900;6.346;2023-04-15T14:26:30;1.77;;;1.15;;
65358;SDS011;52491;45.900;6.346;2023-04-15T14:28:55;1.58;;;1.30;;
65358;SDS011;52491;45.900;6.346;2023-04-15T14:31:21;1.52;;;1.20;;
65358;SDS011;52491;45.900;6.346;2023-04-15T14:33:47;1.50;;;1.40;;
65358;SDS011;52491;45.900;6.346;2023-04-15T14:36:12;1.45;;;1.00;;
65358;SDS011;52491;45.900;6.346;2023-04-15T14:38:38;3.10;;;1.45;;
65358;SDS011;52491;45.900;6.346;2023-04-15T14:41:07;1.65;;;0.98;;
65358;SDS011;52491;45.900;6.346;2023-04-15T14:43:34;1.40;;;1.10;;
65358;SDS011;52491;45.900;6.346;2023-04-15T14:46:00;1.27;;;0.90;;
65358;SDS011;52491;45.900;6.346;2023-04-15T14:48:26;1.80;;;1.00;;
65358;SDS011;52491;45.900;6.346;2023-04-15T14:50:52;1.38;;;1.05;;
65358;SDS011;52491;45.900;6.346;2023-04-15T14:53:18;2.00;;;1.40;;
65358;SDS011;52491;45.900;6.346;2023-04-15T14:55:43;1.90;;;1.40;;
65358;SDS011;52491;45.900;6.346;2023-04-15T14:58:09;1.60;;;0.98;;
65358;SDS011;52491;45.900;6.346;2023-04-15T15:00:38;2.70;;;1.52;;
65358;SDS011;52491;45.900;6.346;2023-04-15T15:03:08;2.13;;;1.30;;